Time;durP1;ratioP1;P1;durP2;ratioP2;P2;SDS_P1;SDS_P2;PMS_P1;PMS_P2;Temp;Humidity;BMP_temperature;BMP_pressure;BME280_temperature;BME280_humidity;BME280_pressure;Samples;Min_cycle;Max_cycle;Signal;HPM_P1;HPM_P2
2023/05/26 00:03:17;;;;;;;;;;;19.30;55.20;;;;;;10330582;28;865;-70
2023/05/26 00:08:12;;;;;;;;;;;19.30;55.10;;;;;;10330434;28;865;-70
2023/05/26 00:13:08;;;;;;;;;;;19.30;55.10;;;;;;10330690;28;862;-70
2023/05/26 00:18:05;;;;;;;;;;;19.40;55.10;;;;;;10329903;28;1914;-70
2023/05/26 00:23:01;;;;;;;;;;;19.30;55.00;;;;;;10330054;28;863;-70
2023/05/26 00:27:56;;;;;;;;;;;19.30;55.10;;;;;;10329020;28;1076;-70
2023/05/26 00:32:51;;;;;;;;;;;19.30;55.10;;;;;;10329283;28;913;-70
2023/05/26 00:37:47;;;;;;;;;;;19.30;55.10;;;;;;10328797;28;1983;-70
2023/05/26 00:42:42;;;;;;;;;;;19.30;55.10;;;;;;10329352;28;798;-70
2023/05/26 00:47:37;;;;;;;;;;;19.30;55.10;;;;;;10328775;28;772;-70
2023/05/26 00:52:33;;;;;;;;;;;19.30;55.10;;;;;;10329133;28;869;-70
2023/05/26 00:57:28;;;;;;;;;;;19.20;55.10;;;;;;10328915;28;1977;-70
2023/05/26 01:02:25;;;;;;;;;;;19.30;55.00;;;;;;10328714;28;842;-70
2023/05/26 01:07:20;;;;;;;;;;;19.20;55.00;;;;;;10327905;28;992;-70
2023/05/26 01:12:16;;;;;;;;;;;19.20;55.50;;;;;;10328260;28;901;-70
2023/05/26 01:17:12;;;;;;;;;;;19.20;54.90;;;;;;10327969;28;1909;-70
2023/05/26 01:22:08;;;;;;;;;;;19.30;54.90;;;;;;10327385;28;864;-70
2023/05/26 01:27:04;;;;;;;;;;;19.30;54.90;;;;;;10327748;28;861;-70
2023/05/26 01:31:59;;;;;;;;;;;19.20;54.80;;;;;;10328141;28;854;-70
2023/05/26 01:36:54;;;;;;;;;;;19.20;54.80;;;;;;10326394;28;1914;-70
2023/05/26 01:41:50;;;;;;;;;;;19.20;54.80;;;;;;10327289;28;896;-70
2023/05/26 01:46:46;;;;;;;;;;;19.20;54.80;;;;;;10324895;28;1139;-70
2023/05/26 01:51:42;;;;;;;;;;;19.20;54.90;;;;;;10326352;28;750;-70
2023/05/26 01:56:37;;;;;;;;;;;19.20;54.90;;;;;;10326090;28;1913;-70
2023/05/26 02:01:33;;;;;;;;;;;19.20;54.80;;;;;;10326065;28;840;-70
2023/05/26 02:06:29;;;;;;;;;;;19.20;54.90;;;;;;10326307;28;899;-70
2023/05/26 02:11:24;;;;;;;;;;;19.20;54.80;;;;;;10325749;28;874;-70
2023/05/26 02:16:21;;;;;;;;;;;19.20;54.80;;;;;;10325647;28;1959;-70
2023/05/26 02:21:16;;;;;;;;;;;19.20;55.00;;;;;;10325553;28;882;-70
2023/05/26 02:26:12;;;;;;;;;;;19.20;54.80;;;;;;10325504;28;924;-70
2023/05/26 02:31:07;;;;;;;;;;;19.20;54.80;;;;;;10325408;28;850;-70
2023/05/26 02:36:03;;;;;;;;;;;19.20;54.80;;;;;;10326343;28;1408;-70
2023/05/26 02:40:58;;;;;;;;;;;19.20;54.80;;;;;;10325155;28;1969;-70
2023/05/26 02:45:53;;;;;;;;;;;19.20;54.80;;;;;;10325113;28;806;-70
2023/05/26 02:50:49;;;;;;;;;;;19.20;54.70;;;;;;10324720;28;868;-70
2023/05/26 02:55:44;;;;;;;;;;;19.10;54.70;;;;;;10324911;28;778;-70
2023/05/26 03:00:40;;;;;;;;;;;19.10;54.80;;;;;;10330220;28;1910;-70
2023/05/26 03:05:36;;;;;;;;;;;19.10;54.80;;;;;;10333461;28;949;-70
2023/05/26 03:10:31;;;;;;;;;;;19.10;54.70;;;;;;10332783;28;830;-70
2023/05/26 03:15:27;;;;;;;;;;;19.10;54.70;;;;;;10331641;28;892;-70
2023/05/26 03:20:22;;;;;;;;;;;19.10;55.30;;;;;;10332008;28;1897;-70
2023/05/26 03:25:18;;;;;;;;;;;19.10;54.80;;;;;;10332552;28;812;-70
2023/05/26 03:30:13;;;;;;;;;;;19.10;54.70;;;;;;10332015;28;892;-70
2023/05/26 03:35:09;;;;;;;;;;;19.10;54.80;;;;;;10332486;28;1259;-69
2023/05/26 03:40:05;;;;;;;;;;;19.10;54.60;;;;;;10330648;28;1967;-70
2023/05/26 03:45:00;;;;;;;;;;;19.10;54.60;;;;;;10332194;28;854;-69
2023/05/26 03:49:55;;;;;;;;;;;19.10;54.50;;;;;;10331057;28;953;-69
2023/05/26 03:54:51;;;;;;;;;;;19.10;54.50;;;;;;10330968;28;779;-69
2023/05/26 03:59:46;;;;;;;;;;;19.10;54.50;;;;;;10330843;28;1961;-70
2023/05/26 04:04:41;;;;;;;;;;;19.20;54.40;;;;;;10330542;28;801;-70
2023/05/26 04:09:37;;;;;;;;;;;19.20;54.40;;;;;;10329561;28;770;-70
2023/05/26 04:14:32;;;;;;;;;;;19.20;54.30;;;;;;10330723;28;829;-69
2023/05/26 04:19:27;;;;;;;;;;;19.20;54.30;;;;;;10330504;28;1967;-70
2023/05/26 04:24:23;;;;;;;;;;;19.20;54.30;;;;;;10329210;28;928;-70
2023/05/26 04:29:20;;;;;;;;;;;19.20;54.20;;;;;;10329605;28;770;-70
2023/05/26 04:34:15;;;;;;;;;;;19.30;54.20;;;;;;10329316;28;1617;-70
2023/05/26 04:39:10;;;;;;;;;;;19.30;54.20;;;;;;10329827;28;1973;-70
2023/05/26 04:44:06;;;;;;;;;;;19.30;54.10;;;;;;10328931;28;897;-70
2023/05/26 04:49:01;;;;;;;;;;;19.30;54.20;;;;;;10328347;28;936;-69
2023/05/26 04:53:57;;;;;;;;;;;19.30;54.10;;;;;;10329169;28;1104;-69
2023/05/26 04:58:52;;;;;;;;;;;19.30;54.00;;;;;;10328357;28;1969;-71
2023/05/26 05:03:47;;;;;;;;;;;19.40;54.10;;;;;;10329106;28;983;-70
2023/05/26 05:08:43;;;;;;;;;;;19.30;54.00;;;;;;10327988;28;829;-69
2023/05/26 05:13:38;;;;;;;;;;;19.40;54.10;;;;;;10328334;28;852;-70
2023/05/26 05:18:33;;;;;;;;;;;19.40;54.00;;;;;;10328048;28;1957;-70
2023/05/26 05:23:34;;;;;;;;;;;19.40;53.90;;;;;;10328486;28;864;-69
2023/05/26 05:28:29;;;;;;;;;;;19.40;54.00;;;;;;10327121;28;1613;-70
2023/05/26 05:33:25;;;;;;;;;;;19.40;54.00;;;;;;10327005;28;893;-71
2023/05/26 05:38:20;;;;;;;;;;;19.40;54.00;;;;;;10327760;28;1983;-71
2023/05/26 05:43:16;;;;;;;;;;;19.40;53.90;;;;;;10326673;28;878;-71
2023/05/26 05:48:11;;;;;;;;;;;19.40;53.90;;;;;;10326878;28;951;-70
2023/05/26 05:53:07;;;;;;;;;;;19.40;53.90;;;;;;10326273;28;841;-70
2023/05/26 05:58:02;;;;;;;;;;;19.40;53.90;;;;;;10326366;28;1980;-70
2023/05/26 06:02:57;;;;;;;;;;;19.40;53.90;;;;;;10326672;28;762;-71
2023/05/26 06:07:53;;;;;;;;;;;19.40;54.00;;;;;;10325921;28;782;-71
2023/05/26 06:12:48;;;;;;;;;;;19.40;54.00;;;;;;10326351;28;877;-71
2023/05/26 06:17:44;;;;;;;;;;;19.50;54.20;;;;;;10324909;28;1973;-70
2023/05/26 06:22:40;;;;;;;;;;;19.40;54.10;;;;;;10326166;28;876;-70
2023/05/26 06:27:35;;;;;;;;;;;19.50;54.20;;;;;;10325482;28;822;-70
2023/05/26 06:32:30;;;;;;;;;;;19.50;54.10;;;;;;10324974;28;806;-70
2023/05/26 06:37:26;;;;;;;;;;;19.50;54.30;;;;;;10324501;28;1910;-68
2023/05/26 06:42:21;;;;;;;;;;;19.50;54.30;;;;;;10326455;28;811;-71
2023/05/26 06:47:22;;;;;;;;;;;19.50;54.40;;;;;;10325091;28;790;-71
2023/05/26 06:52:18;;;;;;;;;;;19.50;54.30;;;;;;10325771;28;777;-71
2023/05/26 06:57:13;;;;;;;;;;;19.50;54.40;;;;;;10323889;28;1902;-71
2023/05/26 07:02:09;;;;;;;;;;;19.40;54.40;;;;;;10323710;28;761;-70
2023/05/26 07:07:04;;;;;;;;;;;19.40;54.40;;;;;;10324228;28;848;-71
2023/05/26 07:11:59;;;;;;;;;;;19.40;54.50;;;;;;10323589;28;810;-70
2023/05/26 07:16:55;;;;;;;;;;;19.40;54.40;;;;;;10325315;28;1902;-70
2023/05/26 07:21:50;;;;;;;;;;;19.40;54.40;;;;;;10325017;28;992;-71
2023/05/26 07:26:46;;;;;;;;;;;19.40;54.40;;;;;;10325163;28;865;-71
2023/05/26 07:31:41;;;;;;;;;;;19.50;54.30;;;;;;10324753;28;853;-70
2023/05/26 07:36:36;;;;;;;;;;;19.50;54.30;;;;;;10324226;28;1914;-70
2023/05/26 07:41:32;;;;;;;;;;;19.50;54.30;;;;;;10324084;28;787;-71
2023/05/26 07:46:27;;;;;;;;;;;19.50;54.40;;;;;;10326544;28;945;-70
2023/05/26 07:51:22;;;;;;;;;;;19.50;54.50;;;;;;10313171;28;906;-70
2023/05/26 07:56:18;;;;;;;;;;;19.50;54.50;;;;;;10330886;28;813;-70
2023/05/26 08:01:13;;;;;;;;;;;19.50;54.60;;;;;;10331224;28;1902;-70
2023/05/26 08:06:09;;;;;;;;;;;19.50;54.40;;;;;;10330433;28;894;-70
2023/05/26 08:11:04;;;;;;;;;;;19.60;54.60;;;;;;10331059;28;961;-70
2023/05/26 08:15:59;;;;;;;;;;;19.50;54.50;;;;;;10330172;28;779;-69
2023/05/26 08:20:55;;;;;;;;;;;19.50;54.70;;;;;;10329909;28;1969;-69
2023/05/26 08:25:50;;;;;;;;;;;19.50;54.70;;;;;;10329828;28;995;-68
2023/05/26 08:30:46;;;;;;;;;;;19.40;54.70;;;;;;10329577;28;804;-69
2023/05/26 08:35:41;;;;;;;;;;;19.40;54.60;;;;;;10329571;28;1279;-69
2023/05/26 08:40:36;;;;;;;;;;;19.40;54.50;;;;;;10329294;28;1914;-69
2023/05/26 08:45:32;;;;;;;;;;;19.50;54.40;;;;;;10329027;28;875;-69
2023/05/26 08:50:27;;;;;;;;;;;19.40;54.40;;;;;;10329381;28;790;-68
2023/05/26 08:55:22;;;;;;;;;;;19.40;54.40;;;;;;10329046;28;815;-79
2023/05/26 09:00:18;;;;;;;;;;;19.50;54.50;;;;;;10328715;28;1965;-77
2023/05/26 09:05:14;;;;;;;;;;;19.40;54.30;;;;;;10328322;28;861;-74
2023/05/26 09:10:09;;;;;;;;;;;19.50;54.40;;;;;;10329745;28;842;-74
2023/05/26 09:15:05;;;;;;;;;;;19.40;54.40;;;;;;10328278;28;881;-74
2023/05/26 09:20:00;;;;;;;;;;;19.50;54.30;;;;;;10326876;28;1967;-74
2023/05/26 09:24:56;;;;;;;;;;;19.50;54.30;;;;;;10326799;28;841;-74
2023/05/26 09:29:51;;;;;;;;;;;19.50;54.30;;;;;;10327214;28;841;-74
2023/05/26 09:34:46;;;;;;;;;;;19.50;54.40;;;;;;10326850;28;1286;-74
2023/05/26 09:39:42;;;;;;;;;;;19.50;54.40;;;;;;10327562;28;1902;-74
2023/05/26 09:44:38;;;;;;;;;;;19.50;54.20;;;;;;10326687;28;904;-74
2023/05/26 09:49:33;;;;;;;;;;;19.50;54.20;;;;;;10326481;28;883;-74
2023/05/26 09:54:28;;;;;;;;;;;19.50;54.30;;;;;;10326362;28;789;-74
2023/05/26 09:59:26;;;;;;;;;;;19.50;54.40;;;;;;10327822;28;1947;-74
2023/05/26 10:04:21;;;;;;;;;;;19.50;54.40;;;;;;10326009;28;968;-74
2023/05/26 10:09:17;;;;;;;;;;;19.50;54.30;;;;;;10325161;28;871;-74
2023/05/26 10:14:12;;;;;;;;;;;19.50;54.30;;;;;;10325241;28;941;-74
2023/05/26 10:19:07;;;;;;;;;;;19.50;54.30;;;;;;10326325;28;1918;-74
2023/05/26 10:24:03;;;;;;;;;;;19.50;54.90;;;;;;10325581;28;822;-74
2023/05/26 10:28:59;;;;;;;;;;;19.50;54.30;;;;;;10325489;28;778;-74
2023/05/26 10:33:54;;;;;;;;;;;19.60;54.30;;;;;;10325125;28;1191;-74
2023/05/26 10:38:50;;;;;;;;;;;19.50;54.30;;;;;;10325888;28;1906;-74
2023/05/26 10:43:45;;;;;;;;;;;19.50;54.30;;;;;;10325784;28;822;-74
2023/05/26 10:48:40;;;;;;;;;;;19.50;54.40;;;;;;10325090;28;952;-74
2023/05/26 10:53:36;;;;;;;;;;;19.60;54.30;;;;;;10325555;28;809;-74
2023/05/26 10:58:34;;;;;;;;;;;19.60;54.20;;;;;;10324728;28;1903;-74
2023/05/26 11:03:29;;;;;;;;;;;19.60;54.10;;;;;;10324910;28;863;-75
2023/05/26 11:08:25;;;;;;;;;;;19.60;54.30;;;;;;10324761;28;785;-75
2023/05/26 11:13:20;;;;;;;;;;;19.60;54.30;;;;;;10324590;28;862;-73
2023/05/26 11:18:16;;;;;;;;;;;19.60;54.30;;;;;;10325230;28;1898;-74
2023/05/26 11:23:11;;;;;;;;;;;19.60;54.20;;;;;;10331508;28;901;-74
2023/05/26 11:28:06;;;;;;;;;;;19.70;54.20;;;;;;10332017;28;787;-74
2023/05/26 11:33:03;;;;;;;;;;;19.70;54.20;;;;;;10331181;28;884;-74
2023/05/26 11:37:58;;;;;;;;;;;19.60;54.20;;;;;;10331982;28;1949;-74
2023/05/26 11:42:54;;;;;;;;;;;19.60;54.30;;;;;;10331468;28;771;-71
2023/05/26 11:47:49;;;;;;;;;;;19.70;54.20;;;;;;10331219;28;872;-72
2023/05/26 11:52:44;;;;;;;;;;;19.70;54.30;;;;;;10331074;28;754;-74
2023/05/26 11:57:42;;;;;;;;;;;19.70;54.30;;;;;;10331432;28;1898;-73
2023/05/26 12:02:37;;;;;;;;;;;19.70;54.30;;;;;;10330661;28;894;-74
2023/05/26 12:07:34;;;;;;;;;;;19.60;54.30;;;;;;10330559;28;938;-73
2023/05/26 12:12:32;;;;;;;;;;;19.60;54.30;;;;;;10330270;28;894;-74
2023/05/26 12:17:28;;;;;;;;;;;19.60;54.40;;;;;;10330621;28;1894;-74
2023/05/26 12:22:23;;;;;;;;;;;19.60;54.40;;;;;;10329960;28;817;-74
2023/05/26 12:27:19;;;;;;;;;;;19.60;54.30;;;;;;10330414;28;880;-75
2023/05/26 12:32:14;;;;;;;;;;;19.60;54.30;;;;;;10328753;28;757;-74
2023/05/26 12:37:10;;;;;;;;;;;19.70;54.40;;;;;;10329431;28;1906;-75
2023/05/26 12:42:05;;;;;;;;;;;19.70;54.30;;;;;;10329971;28;880;-75
2023/05/26 12:47:01;;;;;;;;;;;19.70;54.30;;;;;;10329038;28;811;-75
2023/05/26 12:51:57;;;;;;;;;;;19.70;54.30;;;;;;10328898;28;832;-75
2023/05/26 12:56:52;;;;;;;;;;;19.70;54.30;;;;;;10328509;28;1955;-74
2023/05/26 13:01:48;;;;;;;;;;;19.70;54.40;;;;;;10327856;28;877;-74
2023/05/26 13:06:43;;;;;;;;;;;19.70;54.40;;;;;;10328814;28;817;-75
2023/05/26 13:11:38;;;;;;;;;;;19.70;54.40;;;;;;10327836;28;896;-70
2023/05/26 13:16:34;;;;;;;;;;;19.80;54.30;;;;;;10326879;28;935;-69
2023/05/26 13:21:29;;;;;;;;;;;19.80;54.30;;;;;;10326661;28;1972;-70
2023/05/26 13:26:25;;;;;;;;;;;19.80;54.40;;;;;;10327700;28;849;-71
2023/05/26 13:31:22;;;;;;;;;;;19.80;54.40;;;;;;10326953;28;861;-70
2023/05/26 13:36:18;;;;;;;;;;;19.80;54.30;;;;;;10326478;28;1125;-70
2023/05/26 13:41:13;;;;;;;;;;;19.90;54.40;;;;;;10326528;28;1926;-70
2023/05/26 13:46:08;;;;;;;;;;;19.90;54.40;;;;;;10326847;28;888;-70
2023/05/26 13:51:04;;;;;;;;;;;20.00;54.50;;;;;;10326913;28;971;-70
2023/05/26 13:55:59;;;;;;;;;;;19.90;54.40;;;;;;10326653;28;781;-70
2023/05/26 14:00:54;;;;;;;;;;;20.00;54.40;;;;;;10326081;28;1914;-70
2023/05/26 14:05:50;;;;;;;;;;;20.00;54.40;;;;;;10325609;28;842;-70
2023/05/26 14:10:45;;;;;;;;;;;20.10;54.30;;;;;;10325944;28;845;-69
2023/05/26 14:15:41;;;;;;;;;;;20.10;54.20;;;;;;10326380;28;827;-69
2023/05/26 14:20:37;;;;;;;;;;;20.10;54.20;;;;;;10326846;28;1910;-71
2023/05/26 14:25:32;;;;;;;;;;;20.10;54.20;;;;;;10326201;28;798;-71
2023/05/26 14:30:27;;;;;;;;;;;20.20;54.20;;;;;;10325479;28;937;-71
2023/05/26 14:35:23;;;;;;;;;;;20.20;54.20;;;;;;10324947;28;1496;-71
2023/05/26 14:40:18;;;;;;;;;;;20.20;54.10;;;;;;10326094;28;1914;-71
2023/05/26 14:45:13;;;;;;;;;;;20.30;54.20;;;;;;10325786;28;821;-71
2023/05/26 14:50:09;;;;;;;;;;;20.30;54.20;;;;;;10324546;28;936;-71
2023/05/26 14:55:06;;;;;;;;;;;20.30;54.00;;;;;;10327430;28;800;-71
2023/05/26 15:00:02;;;;;;;;;;;20.30;54.00;;;;;;10333916;28;1894;-71
2023/05/26 15:04:57;;;;;;;;;;;20.40;54.00;;;;;;10333549;28;1056;-71
2023/05/26 15:09:53;;;;;;;;;;;20.40;53.90;;;;;;10332845;28;923;-71
2023/05/26 15:14:48;;;;;;;;;;;20.60;53.20;;;;;;10332548;28;805;-71
2023/05/26 15:19:43;;;;;;;;;;;20.50;53.60;;;;;;10332883;28;1972;-70
2023/05/26 15:24:39;;;;;;;;;;;20.60;53.70;;;;;;10332202;28;870;-71
2023/05/26 15:29:34;;;;;;;;;;;20.60;53.70;;;;;;10332105;28;890;-71
2023/05/26 15:34:30;;;;;;;;;;;20.60;53.60;;;;;;10331584;28;1109;-70
2023/05/26 15:39:25;;;;;;;;;;;20.60;53.50;;;;;;10331550;28;1918;-71
2023/05/26 15:44:20;;;;;;;;;;;20.70;53.50;;;;;;10332030;28;869;-70
2023/05/26 15:49:16;;;;;;;;;;;20.70;53.50;;;;;;10331880;28;888;-70
2023/05/26 15:54:11;;;;;;;;;;;20.70;53.50;;;;;;10331100;28;794;-70
2023/05/26 15:59:07;;;;;;;;;;;20.70;53.60;;;;;;10330829;28;1961;-70
2023/05/26 16:04:02;;;;;;;;;;;20.60;53.60;;;;;;10330677;28;988;-70
2023/05/26 16:08:58;;;;;;;;;;;20.60;53.60;;;;;;10329349;28;968;-70
2023/05/26 16:13:53;;;;;;;;;;;20.60;53.70;;;;;;10330432;28;867;-70
2023/05/26 16:18:49;;;;;;;;;;;20.60;53.70;;;;;;10330123;28;1898;-70
2023/05/26 16:23:45;;;;;;;;;;;20.60;53.70;;;;;;10329978;28;834;-69
2023/05/26 16:28:40;;;;;;;;;;;20.60;53.60;;;;;;10330458;28;853;-70
2023/05/26 16:33:35;;;;;;;;;;;20.70;53.50;;;;;;10330509;28;806;-71
2023/05/26 16:38:31;;;;;;;;;;;20.70;53.50;;;;;;10329209;28;1914;-69
2023/05/26 16:43:26;;;;;;;;;;;20.70;53.50;;;;;;10329831;28;797;-70
2023/05/26 16:48:22;;;;;;;;;;;20.70;53.50;;;;;;10328476;28;904;-70
2023/05/26 16:53:17;;;;;;;;;;;20.60;53.70;;;;;;10328896;28;779;-70
2023/05/26 16:58:12;;;;;;;;;;;20.60;53.70;;;;;;10329170;28;1909;-70
2023/05/26 17:03:08;;;;;;;;;;;20.50;53.70;;;;;;10327885;28;999;-70
2023/05/26 17:08:03;;;;;;;;;;;20.50;53.80;;;;;;10328061;28;936;-70
2023/05/26 17:12:59;;;;;;;;;;;20.40;53.70;;;;;;10328062;28;885;-70
2023/05/26 17:17:55;;;;;;;;;;;20.40;53.90;;;;;;10327326;28;1960;-69
2023/05/26 17:22:50;;;;;;;;;;;20.40;53.90;;;;;;10328546;28;877;-70
2023/05/26 17:27:46;;;;;;;;;;;20.30;53.90;;;;;;10327433;28;776;-70
2023/05/26 17:32:41;;;;;;;;;;;20.40;53.90;;;;;;10327242;28;782;-70
2023/05/26 17:37:36;;;;;;;;;;;20.30;53.90;;;;;;10327217;28;1914;-70
2023/05/26 17:42:32;;;;;;;;;;;20.30;53.90;;;;;;10328074;28;821;-69
2023/05/26 17:47:27;;;;;;;;;;;20.30;53.90;;;;;;10326587;28;862;-69
2023/05/26 17:52:23;;;;;;;;;;;20.30;54.00;;;;;;10326505;28;832;-70
2023/05/26 17:57:18;;;;;;;;;;;20.30;54.00;;;;;;10326895;28;1910;-69
2023/05/26 18:02:13;;;;;;;;;;;20.30;54.00;;;;;;10325623;28;853;-69
2023/05/26 18:07:09;;;;;;;;;;;20.40;53.90;;;;;;10326637;28;853;-70
2023/05/26 18:12:05;;;;;;;;;;;20.40;53.90;;;;;;10326509;28;897;-70
2023/05/26 18:17:00;;;;;;;;;;;20.40;53.80;;;;;;10326277;28;1890;-69
2023/05/26 18:21:56;;;;;;;;;;;20.40;53.80;;;;;;10325723;28;940;-69
2023/05/26 18:26:52;;;;;;;;;;;20.40;53.80;;;;;;10325677;28;969;-69
2023/05/26 18:31:47;;;;;;;;;;;20.50;53.80;;;;;;10326027;28;802;-70
2023/05/26 18:36:42;;;;;;;;;;;20.50;54.40;;;;;;10325096;28;1318;-69
2023/05/26 18:41:38;;;;;;;;;;;20.40;53.80;;;;;;10324929;28;1965;-69
2023/05/26 18:46:33;;;;;;;;;;;20.50;53.80;;;;;;10325284;28;858;-69
2023/05/26 18:51:29;;;;;;;;;;;20.50;53.80;;;;;;10324530;28;806;-69
2023/05/26 18:56:24;;;;;;;;;;;20.40;53.80;;;;;;10325640;28;942;-69
2023/05/26 19:01:19;;;;;;;;;;;20.50;53.80;;;;;;10324984;28;1902;-69
2023/05/26 19:06:15;;;;;;;;;;;20.40;53.80;;;;;;10324822;28;884;-69
2023/05/26 19:11:10;;;;;;;;;;;20.40;53.90;;;;;;10324770;28;926;-69
2023/05/26 19:16:05;;;;;;;;;;;20.40;53.90;;;;;;10324663;28;829;-69
2023/05/26 19:21:01;;;;;;;;;;;20.40;53.90;;;;;;10324519;28;1910;-69
2023/05/26 19:25:56;;;;;;;;;;;20.30;53.90;;;;;;10325030;28;865;-69
2023/05/26 19:30:51;;;;;;;;;;;20.30;53.90;;;;;;10306316;28;868;-69
2023/05/26 19:35:47;;;;;;;;;;;20.30;54.00;;;;;;10306908;28;1636;-69
2023/05/26 19:40:42;;;;;;;;;;;20.40;54.10;;;;;;10325810;28;1977;-69
2023/05/26 19:45:38;;;;;;;;;;;20.30;54.10;;;;;;10331488;28;865;-69
2023/05/26 19:50:33;;;;;;;;;;;20.30;54.10;;;;;;10331942;28;786;-69
2023/05/26 19:55:28;;;;;;;;;;;20.30;54.10;;;;;;10330508;28;1071;-69
2023/05/26 20:00:24;;;;;;;;;;;20.30;54.20;;;;;;10330882;28;1971;-69
2023/05/26 20:05:19;;;;;;;;;;;20.20;54.10;;;;;;10331275;28;968;-69
2023/05/26 20:10:15;;;;;;;;;;;20.20;54.20;;;;;;10330542;28;791;-69
2023/05/26 20:15:10;;;;;;;;;;;20.20;54.20;;;;;;10330396;28;797;-68
2023/05/26 20:20:06;;;;;;;;;;;20.10;54.20;;;;;;10330791;28;1902;-68
2023/05/26 20:25:01;;;;;;;;;;;20.10;54.10;;;;;;10330629;28;842;-68
2023/05/26 20:30:00;;;;;;;;;;;20.20;54.70;;;;;;10330134;28;900;-73
2023/05/26 20:34:55;;;;;;;;;;;20.10;54.00;;;;;;10329837;28;1143;-74
2023/05/26 20:39:53;;;;;;;;;;;20.10;54.00;;;;;;10329938;28;1913;-74
2023/05/26 20:44:49;;;;;;;;;;;20.10;54.00;;;;;;10329233;28;957;-74
2023/05/26 20:49:44;;;;;;;;;;;20.10;54.00;;;;;;10329027;28;865;-74
2023/05/26 20:54:40;;;;;;;;;;;20.10;53.90;;;;;;10328113;28;976;-74
2023/05/26 20:59:35;;;;;;;;;;;20.20;54.00;;;;;;10329121;28;1910;-74
2023/05/26 21:04:31;;;;;;;;;;;20.20;53.90;;;;;;10329014;28;874;-74
2023/05/26 21:09:26;;;;;;;;;;;20.20;53.80;;;;;;10328275;28;1013;-74
2023/05/26 21:14:21;;;;;;;;;;;20.20;53.90;;;;;;10329211;28;821;-73
2023/05/26 21:19:17;;;;;;;;;;;20.20;53.90;;;;;;10328388;28;1910;-74
2023/05/26 21:24:12;;;;;;;;;;;20.20;53.80;;;;;;10327653;28;775;-73
2023/05/26 21:29:08;;;;;;;;;;;20.20;53.80;;;;;;10327459;28;833;-74
2023/05/26 21:34:03;;;;;;;;;;;20.20;53.80;;;;;;10327190;28;1178;-74
2023/05/26 21:38:58;;;;;;;;;;;20.20;53.80;;;;;;10327184;28;1917;-73
2023/05/26 21:43:54;;;;;;;;;;;20.20;53.80;;;;;;10326880;28;775;-74
2023/05/26 21:48:49;;;;;;;;;;;20.20;53.80;;;;;;10326093;28;921;-74
2023/05/26 21:53:44;;;;;;;;;;;20.20;53.80;;;;;;10327260;28;762;-74
2023/05/26 21:58:40;;;;;;;;;;;20.20;53.80;;;;;;10326307;28;1961;-74
2023/05/26 22:03:35;;;;;;;;;;;20.20;53.80;;;;;;10325241;28;858;-74
2023/05/26 22:08:31;;;;;;;;;;;20.10;53.80;;;;;;10326140;28;821;-74
2023/05/26 22:13:26;;;;;;;;;;;20.20;53.80;;;;;;10326003;28;907;-73
2023/05/26 22:18:21;;;;;;;;;;;20.10;53.80;;;;;;10325835;28;2012;-73
2023/05/26 22:23:17;;;;;;;;;;;20.20;53.80;;;;;;10326339;28;896;-73
2023/05/26 22:28:12;;;;;;;;;;;20.20;53.80;;;;;;10325046;28;881;-73
2023/05/26 22:33:07;;;;;;;;;;;20.10;53.70;;;;;;10326150;28;917;-73
2023/05/26 22:38:03;;;;;;;;;;;20.20;53.80;;;;;;10325660;28;1910;-73
2023/05/26 22:42:58;;;;;;;;;;;20.20;53.80;;;;;;10324743;28;865;-74
2023/05/26 22:47:53;;;;;;;;;;;20.10;53.80;;;;;;10325824;28;837;-73
2023/05/26 22:52:49;;;;;;;;;;;20.10;53.70;;;;;;10325152;28;975;-73
2023/05/26 22:57:47;;;;;;;;;;;20.20;53.70;;;;;;10325796;28;1961;-73
2023/05/26 23:02:42;;;;;;;;;;;20.20;53.70;;;;;;10324266;28;1044;-73
2023/05/26 23:07:37;;;;;;;;;;;20.20;53.70;;;;;;10324275;28;845;-73
2023/05/26 23:12:33;;;;;;;;;;;20.20;53.60;;;;;;10324840;28;888;-73
2023/05/26 23:17:28;;;;;;;;;;;20.20;53.70;;;;;;10329735;28;1901;-73
2023/05/26 23:22:24;;;;;;;;;;;20.20;53.60;;;;;;10332427;28;793;-73
2023/05/26 23:27:19;;;;;;;;;;;20.20;53.60;;;;;;10332170;28;853;-73
2023/05/26 23:32:15;;;;;;;;;;;20.10;54.20;;;;;;10332039;28;759;-73
2023/05/26 23:37:10;;;;;;;;;;;20.10;53.60;;;;;;10332088;28;1910;-73
2023/05/26 23:42:05;;;;;;;;;;;20.20;53.60;;;;;;10332253;28;779;-73
2023/05/26 23:47:01;;;;;;;;;;;20.10;53.50;;;;;;10331570;28;921;-73
2023/05/26 23:51:56;;;;;;;;;;;20.10;53.50;;;;;;10330738;28;987;-73
2023/05/26 23:56:51;;;;;;;;;;;20.10;53.60;;;;;;10331755;28;813;-73
